Time;durP1;ratioP1;P1;durP2;ratioP2;P2;SDS_P1;SDS_P2;PMS_P1;PMS_P2;Temp;Humidity;BMP_temperature;BMP_pressure;BME280_temperature;BME280_humidity;BME280_pressure;Samples;Min_cycle;Max_cycle;Signal;HPM_P1;HPM_P2
2023/07/03 00:00:20;;;;;;;9.00;8.10;;;;;;;21.20;64.61;95377.47;5059274;28;20219;-85
2023/07/03 00:02:49;;;;;;;9.30;8.45;;;;;;;21.15;65.26;95376.63;5070792;28;20220;-85
2023/07/03 00:05:18;;;;;;;11.00;8.68;;;;;;;21.14;65.02;95375.03;5062682;28;20220;-84
2023/07/03 00:07:46;;;;;;;9.48;8.48;;;;;;;21.10;65.34;95377.34;5061884;28;20196;-82
2023/07/03 00:10:13;;;;;;;9.73;8.82;;;;;;;21.08;65.43;95371.56;5063742;28;20638;-83
2023/07/03 00:12:40;;;;;;;9.82;8.82;;;;;;;21.04;65.57;95368.66;5065365;28;20209;-85
2023/07/03 00:15:07;;;;;;;10.45;9.23;;;;;;;21.02;65.78;95377.78;5075045;28;20216;-83
2023/07/03 00:17:37;;;;;;;10.25;9.25;;;;;;;21.00;65.87;95374.63;5057751;28;20287;-84
2023/07/03 00:20:04;;;;;;;10.70;9.65;;;;;;;20.96;65.89;95376.97;5070252;28;20509;-85
2023/07/03 00:22:30;;;;;;;9.60;8.55;;;;;;;20.98;65.38;95379.31;5051882;28;20224;-85
2023/07/03 00:24:57;;;;;;;9.75;8.48;;;;;;;20.98;65.74;95387.16;5067060;28;20201;-86
2023/07/03 00:27:26;;;;;;;10.25;9.18;;;;;;;20.94;65.77;95391.31;5065862;28;20202;-85
2023/07/03 00:29:52;;;;;;;10.07;9.07;;;;;;;20.86;66.86;95391.75;5066608;28;20190;-86
2023/07/03 00:32:19;;;;;;;10.85;9.13;;;;;;;20.80;66.67;95398.75;5061331;28;20192;-84
2023/07/03 00:34:49;;;;;;;10.73;9.52;;;;;;;20.67;68.27;95396.50;5070228;28;20228;-86
2023/07/03 00:37:16;;;;;;;10.23;9.23;;;;;;;20.57;68.43;95396.41;5068526;28;20551;-86
2023/07/03 00:39:42;;;;;;;9.63;8.73;;;;;;;20.53;68.42;95393.47;5065702;28;20236;-85
2023/07/03 00:42:09;;;;;;;11.90;9.38;;;;;;;20.49;68.33;95396.81;5060458;28;20197;-86
2023/07/03 00:44:35;;;;;;;10.20;8.98;;;;;;;20.48;68.63;95390.78;5055437;28;20234;-84
2023/07/03 00:47:03;;;;;;;11.18;9.90;;;;;;;20.42;69.09;95391.75;5068092;28;20199;-86
2023/07/03 00:49:31;;;;;;;10.82;9.60;;;;;;;20.38;69.28;95395.91;5053833;28;20194;-84
2023/07/03 00:52:03;;;;;;;10.43;9.40;;;;;;;20.36;69.42;95397.94;5069297;28;20204;-86
2023/07/03 00:54:30;;;;;;;12.45;9.48;;;;;;;20.30;69.55;95397.06;5060680;28;20660;-82
2023/07/03 00:56:59;;;;;;;10.70;9.60;;;;;;;20.33;69.11;95393.97;5052431;28;20202;-85
2023/07/03 00:59:25;;;;;;;10.73;9.63;;;;;;;20.28;69.57;95395.72;5067560;28;20323;-85
2023/07/03 01:01:59;;;;;;;10.63;9.55;;;;;;;20.26;69.55;95395.16;5059780;28;20204;-86
2023/07/03 01:04:31;;;;;;;12.90;9.52;;;;;;;20.21;69.79;95395.88;5064162;28;20308;-84
2023/07/03 01:07:02;;;;;;;11.07;9.98;;;;;;;20.11;70.27;95392.34;5068516;28;20638;-84
2023/07/03 01:09:36;;;;;;;10.82;9.63;;;;;;;20.13;69.88;95387.69;5065924;28;20738;-84
2023/07/03 01:12:04;;;;;;;10.90;9.77;;;;;;;20.11;70.14;95387.91;5055758;28;20546;-82
2023/07/03 01:14:31;;;;;;;11.13;10.02;;;;;;;20.10;70.12;95388.94;5070603;28;20225;-84
2023/07/03 01:16:59;;;;;;;10.20;9.20;;;;;;;20.12;70.00;95399.97;5058433;28;20455;-86
2023/07/03 01:19:29;;;;;;;10.63;9.60;;;;;;;20.16;69.82;95397.66;5069133;28;20220;-84
2023/07/03 01:22:02;;;;;;;11.63;10.43;;;;;;;20.15;70.10;95401.31;5055009;28;20292;-85
2023/07/03 01:24:41;;;;;;;12.68;10.32;;;;;;;20.07;71.23;95402.50;5067315;28;20674;-83
2023/07/03 01:27:12;;;;;;;11.73;10.52;;;;;;;20.02;70.49;95402.41;5054472;28;20202;-84
2023/07/03 01:29:43;;;;;;;11.20;9.73;;;;;;;20.00;71.01;95399.28;5060850;28;20379;-86
2023/07/03 01:32:12;;;;;;;10.77;9.60;;;;;;;20.04;70.58;95404.78;5055251;28;20255;-84
2023/07/03 01:34:45;;;;;;;11.95;9.70;;;;;;;20.02;70.67;95403.22;5051719;28;20710;-86
2023/07/03 01:37:15;;;;;;;11.68;10.48;;;;;;;20.06;70.31;95397.50;5067487;28;20196;-84
2023/07/03 01:39:44;;;;;;;10.65;9.65;;;;;;;19.99;71.10;95397.69;5062631;28;20217;-83
2023/07/03 01:42:11;;;;;;;11.05;9.93;;;;;;;19.82;72.38;95405.53;5061794;28;20194;-85
2023/07/03 01:44:37;;;;;;;12.02;10.52;;;;;;;19.87;71.38;95397.75;5050689;28;20214;-83
2023/07/03 01:47:06;;;;;;;11.10;9.95;;;;;;;19.89;71.69;95407.97;5063309;28;20408;-84
2023/07/03 01:49:32;;;;;;;13.68;9.48;;;;;;;19.94;71.60;95408.06;5051662;28;20209;-85
2023/07/03 01:52:07;;;;;;;13.30;10.60;;;;;;;19.94;70.96;95401.00;5058400;28;20212;-86
2023/07/03 01:54:40;;;;;;;11.43;10.30;;;;;;;19.89;71.22;95403.53;5063855;28;20248;-83
2023/07/03 01:57:11;;;;;;;11.60;10.40;;;;;;;19.91;70.51;95400.69;5056588;28;20224;-84
2023/07/03 01:59:40;;;;;;;11.98;10.25;;;;;;;19.90;70.67;95399.91;5055128;28;20212;-85
2023/07/03 02:02:11;;;;;;;12.77;10.45;;;;;;;19.89;70.73;95403.53;5062712;28;20221;-85
2023/07/03 02:04:41;;;;;;;12.50;11.10;;;;;;;19.92;70.39;95394.44;5062171;28;20221;-83
2023/07/03 02:10:30;;;;;;;11.38;10.27;;;;;;;19.94;70.23;95395.00;5065808;28;20274;-84
2023/07/03 02:12:57;;;;;;;12.30;10.30;;;;;;;19.92;70.31;95397.84;5062185;28;20229;-84
2023/07/03 02:15:24;;;;;;;14.65;11.05;;;;;;;19.90;70.14;95394.69;5068421;28;20212;-84
2023/07/03 02:17:53;;;;;;;12.55;11.25;;;;;;;19.87;70.03;95399.59;5050983;28;20574;-86
2023/07/03 02:20:20;;;;;;;13.23;10.68;;;;;;;19.84;69.83;95400.84;5053634;28;20671;-84
2023/07/03 02:22:47;;;;;;;12.20;10.60;;;;;;;19.80;70.21;95401.59;5070359;28;20228;-83
2023/07/03 02:25:15;;;;;;;12.00;10.70;;;;;;;19.82;69.45;95402.13;5070423;28;20196;-85
2023/07/03 02:27:42;;;;;;;12.05;10.85;;;;;;;19.76;69.32;95405.69;5061432;28;20235;-84
2023/07/03 02:30:11;;;;;;;11.80;10.60;;;;;;;19.70;69.28;95402.22;5065091;28;20255;-85
2023/07/03 02:32:40;;;;;;;12.13;10.90;;;;;;;19.71;69.55;95408.22;5049881;28;20202;-84
2023/07/03 02:35:07;;;;;;;13.00;10.80;;;;;;;19.68;69.54;95401.66;5050859;28;20201;-83
2023/07/03 02:37:34;;;;;;;12.48;11.18;;;;;;;19.64;69.29;95403.94;5051427;28;20563;-86
2023/07/03 02:40:00;;;;;;;12.77;11.02;;;;;;;19.61;69.32;95409.66;5070629;28;20278;-83
2023/07/03 02:42:29;;;;;;;13.93;11.23;;;;;;;19.61;69.42;95411.47;5067883;28;20208;-82
2023/07/03 02:44:57;;;;;;;13.30;10.68;;;;;;;19.60;69.66;95405.47;5067735;28;20693;-84
2023/07/03 02:47:25;;;;;;;11.70;10.60;;;;;;;19.53;69.48;95409.25;5052614;28;20201;-85
2023/07/03 02:49:52;;;;;;;11.88;10.68;;;;;;;19.52;68.81;95402.44;5050061;28;20201;-84
2023/07/03 02:52:18;;;;;;;12.95;11.40;;;;;;;19.45;69.34;95410.38;5049927;28;20205;-83
2023/07/03 02:54:45;;;;;;;12.05;10.82;;;;;;;19.49;68.32;95408.88;5056411;28;20229;-85
2023/07/03 02:57:11;;;;;;;13.60;10.93;;;;;;;19.48;68.12;95402.09;5034374;28;20237;-83
2023/07/03 02:59:38;;;;;;;13.10;10.70;;;;;;;19.53;67.97;95410.03;5058752;28;20330;-85
2023/07/03 03:02:06;;;;;;;15.02;11.07;;;;;;;19.59;67.70;95410.91;5069561;28;20258;-86
2023/07/03 03:04:34;;;;;;;12.48;11.15;;;;;;;19.63;67.39;95409.41;5071052;28;20259;-83
2023/07/03 03:07:00;;;;;;;12.13;10.52;;;;;;;19.66;67.09;95408.94;5070373;28;20254;-84
2023/07/03 03:09:27;;;;;;;15.20;11.27;;;;;;;19.69;67.29;95418.91;5070296;28;20212;-83
2023/07/03 03:11:53;;;;;;;12.23;11.00;;;;;;;19.70;67.68;95409.25;5069572;28;20287;-86
2023/07/03 03:14:20;;;;;;;13.30;11.18;;;;;;;19.75;67.75;95410.13;5069633;28;20572;-84
2023/07/03 03:16:46;;;;;;;12.18;10.95;;;;;;;19.75;68.30;95417.97;5067677;28;20201;-82
2023/07/03 03:19:13;;;;;;;11.68;10.50;;;;;;;19.75;67.94;95417.97;5069734;28;20624;-85
2023/07/03 03:21:40;;;;;;;12.80;11.38;;;;;;;19.76;68.44;95410.91;5053980;28;20217;-83
2023/07/03 03:24:07;;;;;;;12.43;11.13;;;;;;;19.77;68.31;95417.72;5049602;28;20221;-85
2023/07/03 03:26:34;;;;;;;12.25;11.00;;;;;;;19.78;68.05;95421.94;5053050;28;20200;-84
2023/07/03 03:29:00;;;;;;;14.38;12.00;;;;;;;19.77;67.78;95422.97;5050098;28;20197;-85
2023/07/03 03:31:26;;;;;;;12.32;10.95;;;;;;;19.75;67.46;95425.81;5064829;28;20200;-85
2023/07/03 03:33:53;;;;;;;12.15;10.95;;;;;;;19.75;67.02;95423.19;5073329;28;20228;-86
2023/07/03 03:36:19;;;;;;;13.00;11.13;;;;;;;19.74;66.63;95418.19;5073405;28;20193;-82
2023/07/03 03:38:47;;;;;;;12.27;10.98;;;;;;;19.73;66.28;95417.41;5080655;28;20711;-84
2023/07/03 03:41:14;;;;;;;14.07;11.20;;;;;;;19.71;66.16;95421.28;5093490;28;20226;-84
2023/07/03 03:43:40;;;;;;;16.17;11.15;;;;;;;19.66;66.05;95422.00;5093564;28;20293;-85
2023/07/03 03:46:07;;;;;;;13.82;11.15;;;;;;;19.68;66.06;95425.16;5067824;28;20259;-83
2023/07/03 03:48:35;;;;;;;12.35;11.02;;;;;;;19.65;65.29;95423.00;5066873;28;20205;-84
2023/07/03 03:51:01;;;;;;;12.80;11.50;;;;;;;19.60;65.64;95423.75;5062654;28;20216;-84
2023/07/03 03:53:28;;;;;;;13.10;11.65;;;;;;;19.65;65.30;95429.03;5058937;28;20217;-83
2023/07/03 03:55:56;;;;;;;14.93;11.65;;;;;;;19.61;65.45;95422.72;5064083;28;20192;-84
2023/07/03 03:58:22;;;;;;;15.68;11.20;;;;;;;19.62;64.88;95416.47;5073954;28;20227;-83
2023/07/03 04:00:50;;;;;;;11.82;10.50;;;;;;;19.63;64.74;95423.25;5073832;28;20220;-86
2023/07/03 04:03:17;;;;;;;14.15;11.00;;;;;;;19.62;64.16;95419.09;5067879;28;20229;-84
2023/07/03 04:05:43;;;;;;;13.63;10.93;;;;;;;19.64;64.32;95424.03;5063965;28;20205;-84
2023/07/03 04:08:11;;;;;;;14.13;11.48;;;;;;;19.67;63.86;95415.75;5056953;28;20201;-82
2023/07/03 04:10:37;;;;;;;12.88;11.38;;;;;;;19.73;63.93;95420.03;5054836;28;20198;-84
2023/07/03 04:13:05;;;;;;;16.73;11.80;;;;;;;19.72;63.35;95428.09;5054575;28;20317;-83
2023/07/03 04:15:35;;;;;;;13.35;11.07;;;;;;;19.67;63.24;95424.38;5054495;28;20205;-84
2023/07/03 04:18:02;;;;;;;13.73;11.38;;;;;;;19.65;62.38;95433.47;5053436;28;20201;-84
2023/07/03 04:20:28;;;;;;;12.85;10.57;;;;;;;19.64;62.75;95430.06;5064123;28;20221;-85
2023/07/03 04:22:54;;;;;;;12.98;10.70;;;;;;;19.67;62.75;95426.19;5074761;28;20223;-85
2023/07/03 04:25:22;;;;;;;14.80;11.68;;;;;;;19.66;62.14;95430.63;5069393;28;20216;-85
2023/07/03 04:27:49;;;;;;;14.77;11.13;;;;;;;19.72;61.99;95428.88;5057578;28;20205;-84
2023/07/03 04:30:16;;;;;;;14.57;11.20;;;;;;;19.78;61.70;95437.59;5054193;28;20208;-84
2023/07/03 04:32:43;;;;;;;13.02;11.40;;;;;;;19.84;61.40;95426.19;5068660;28;20192;-84
2023/07/03 04:35:09;;;;;;;14.43;11.52;;;;;;;19.88;60.98;95437.75;5060376;28;20209;-82
2023/07/03 04:37:37;;;;;;;18.13;11.63;;;;;;;19.92;60.69;95436.25;5069035;28;20623;-84
2023/07/03 04:40:04;;;;;;;17.15;11.70;;;;;;;19.96;59.67;95432.94;5076420;28;20202;-83
2023/07/03 04:42:32;;;;;;;12.55;10.52;;;;;;;20.00;60.29;95435.88;5053305;28;20675;-82
2023/07/03 04:44:58;;;;;;;14.48;11.40;;;;;;;20.00;59.66;95431.44;5054158;28;20746;-85
2023/07/03 04:47:26;;;;;;;12.52;10.40;;;;;;;20.01;59.73;95434.84;5061400;28;20205;-84
2023/07/03 04:49:55;;;;;;;13.52;11.45;;;;;;;20.01;57.75;95432.22;5063135;28;20197;-83
2023/07/03 04:52:23;;;;;;;14.95;11.10;;;;;;;20.06;58.15;95441.94;5066504;28;20209;-84
2023/07/03 04:54:49;;;;;;;16.75;11.82;;;;;;;20.12;57.60;95431.34;5056196;28;20233;-83
2023/07/03 04:57:16;;;;;;;14.68;11.00;;;;;;;20.19;57.71;95433.78;5057554;28;20201;-83
2023/07/03 04:59:43;;;;;;;13.75;11.30;;;;;;;20.21;57.04;95437.72;5063597;28;20199;-84
2023/07/03 05:02:11;;;;;;;12.85;11.27;;;;;;;20.27;57.86;95436.78;5061676;28;20221;-83
2023/07/03 05:04:42;;;;;;;17.00;11.55;;;;;;;20.31;57.50;95439.69;5062809;28;20932;-84
2023/07/03 05:07:09;;;;;;;16.20;11.05;;;;;;;20.35;57.29;95441.59;5073769;28;20636;-83
2023/07/03 05:09:35;;;;;;;14.32;11.60;;;;;;;20.39;57.65;95441.16;5071490;28;20201;-83
2023/07/03 05:12:02;;;;;;;16.02;10.38;;;;;;;20.39;57.29;95441.16;5066572;28;20681;-82
2023/07/03 05:14:28;;;;;;;15.93;11.13;;;;;;;20.49;57.65;95443.88;5063428;28;20240;-83
2023/07/03 05:16:54;;;;;;;12.00;10.73;;;;;;;20.57;57.11;95444.28;5060996;28;20591;-85
2023/07/03 05:19:22;;;;;;;15.25;11.02;;;;;;;20.65;56.86;95435.19;5062637;28;20205;-84
2023/07/03 05:21:50;;;;;;;15.52;11.40;;;;;;;20.77;56.36;95440.34;5062016;28;20585;-84
2023/07/03 05:24:16;;;;;;;16.63;11.27;;;;;;;20.76;55.33;95433.50;5061784;28;20231;-83
2023/07/03 05:26:42;;;;;;;15.85;11.02;;;;;;;20.86;54.53;95441.47;5055538;28;20244;-80
2023/07/03 05:29:09;;;;;;;13.35;10.55;;;;;;;20.93;54.82;95444.72;5052870;28;20206;-84
2023/07/03 05:31:35;;;;;;;14.25;10.70;;;;;;;20.98;54.53;95450.78;5051916;28;20591;-83
2023/07/03 05:34:02;;;;;;;14.73;10.98;;;;;;;21.06;54.12;95446.94;5055912;28;20224;-81
2023/07/03 05:36:30;;;;;;;14.05;11.50;;;;;;;21.09;53.71;95450.91;5070399;28;20207;-83
2023/07/03 05:38:57;;;;;;;15.98;11.40;;;;;;;21.16;53.63;95448.88;5081606;28;20760;-85
2023/07/03 05:41:24;;;;;;;14.75;10.27;;;;;;;21.22;53.12;95451.34;5075025;28;20216;-82
2023/07/03 05:43:50;;;;;;;14.43;10.70;;;;;;;21.29;53.41;95451.94;5058680;28;20220;-83
2023/07/03 05:46:17;;;;;;;14.52;10.55;;;;;;;21.32;52.55;95451.44;5053358;28;20360;-84
2023/07/03 05:48:43;;;;;;;18.15;13.93;;;;;;;21.32;51.53;95454.06;5065274;28;20202;-84
2023/07/03 05:51:10;;;;;;;14.30;11.88;;;;;;;21.30;50.25;95457.97;5058474;28;20272;-84
2023/07/03 05:53:36;;;;;;;15.77;10.02;;;;;;;21.26;49.52;95460.28;5069039;28;20236;-81
2023/07/03 05:56:04;;;;;;;14.15;9.88;;;;;;;21.35;50.04;95461.44;5076387;28;20207;-85
2023/07/03 05:58:32;;;;;;;15.35;10.15;;;;;;;21.42;50.56;95468.28;5063838;28;20204;-83
2023/07/03 06:01:00;;;;;;;13.68;9.57;;;;;;;21.56;50.23;95465.03;5051475;28;20222;-83
2023/07/03 06:03:26;;;;;;;12.13;9.32;;;;;;;21.63;48.80;95470.06;5052041;28;20733;-85
2023/07/03 06:05:53;;;;;;;14.63;9.63;;;;;;;21.64;49.13;95463.78;5057795;28;20193;-83
2023/07/03 06:08:21;;;;;;;12.77;9.50;;;;;;;21.74;49.54;95468.34;5068891;28;20209;-82
2023/07/03 06:10:47;;;;;;;12.57;9.90;;;;;;;21.73;48.34;95474.63;5051618;28;20225;-83
2023/07/03 06:13:15;;;;;;;15.27;9.15;;;;;;;21.76;48.26;95469.66;5053761;28;20227;-85
2023/07/03 06:15:42;;;;;;;14.65;9.80;;;;;;;21.76;47.95;95474.09;5052119;28;20196;-85
2023/07/03 06:18:09;;;;;;;14.05;10.18;;;;;;;21.71;47.80;95467.81;5058105;28;20662;-82
2023/07/03 06:20:37;;;;;;;13.45;9.13;;;;;;;21.74;48.32;95471.75;5052063;28;20201;-84
2023/07/03 06:23:04;;;;;;;13.30;9.05;;;;;;;21.67;48.01;95471.16;5058959;28;20217;-85
2023/07/03 06:25:30;;;;;;;13.57;10.00;;;;;;;21.62;47.97;95474.53;5071564;28;20250;-84
2023/07/03 06:27:56;;;;;;;14.10;9.23;;;;;;;21.61;47.87;95472.16;5062265;28;20193;-83
2023/07/03 06:30:24;;;;;;;12.13;9.63;;;;;;;21.60;47.91;95473.97;5050963;28;20205;-82
2023/07/03 06:32:51;;;;;;;17.05;12.88;;;;;;;21.72;48.18;95468.59;5050956;28;20217;-84
2023/07/03 06:35:18;;;;;;;15.40;11.23;;;;;;;21.71;47.54;95473.03;5050950;28;20206;-83
2023/07/03 06:37:44;;;;;;;14.40;9.68;;;;;;;21.76;47.35;95464.41;5050365;28;20220;-83
2023/07/03 06:40:14;;;;;;;14.73;9.90;;;;;;;21.86;47.50;95467.13;5063857;28;20212;-83
2023/07/03 06:42:42;;;;;;;12.75;9.43;;;;;;;21.88;46.59;95467.69;5050715;28;20313;-83
2023/07/03 06:45:09;;;;;;;15.68;9.35;;;;;;;21.97;47.23;95471.41;5051294;28;20210;-84
2023/07/03 06:47:37;;;;;;;12.93;9.45;;;;;;;22.07;47.02;95475.97;5050302;28;20613;-83
2023/07/03 06:50:04;;;;;;;15.27;9.77;;;;;;;22.11;47.04;95466.56;5050259;28;20205;-82
2023/07/03 06:52:30;;;;;;;12.32;9.15;;;;;;;22.13;47.90;95472.34;5054912;28;20205;-82
2023/07/03 06:54:56;;;;;;;13.15;10.10;;;;;;;22.17;47.67;95464.75;5059316;28;20208;-83
2023/07/03 06:57:23;;;;;;;11.55;9.48;;;;;;;22.17;48.24;95472.63;5062073;28;20581;-84
2023/07/03 06:59:51;;;;;;;11.68;9.30;;;;;;;22.03;48.78;95473.06;5070764;28;20212;-82
2023/07/03 07:02:17;;;;;;;12.80;9.77;;;;;;;21.86;48.65;95468.97;5071256;28;20220;-86
2023/07/03 07:04:45;;;;;;;12.20;9.50;;;;;;;21.83;49.05;95474.69;5070623;28;20225;-83
2023/07/03 07:07:12;;;;;;;12.75;10.23;;;;;;;21.73;49.94;95475.41;5070315;28;20704;-83
2023/07/03 07:09:38;;;;;;;11.45;9.90;;;;;;;21.71;49.99;95470.44;5070913;28;20208;-83
2023/07/03 07:12:06;;;;;;;12.30;9.82;;;;;;;21.69;50.33;95474.31;5068774;28;20682;-84
2023/07/03 07:14:32;;;;;;;16.25;14.25;;;;;;;21.75;50.69;95472.53;5070002;28;20244;-84
2023/07/03 07:16:59;;;;;;;21.55;19.30;;;;;;;21.81;50.86;95474.94;5070453;28;20211;-82
2023/07/03 07:19:26;;;;;;;13.57;9.80;;;;;;;21.80;50.15;95475.97;5070347;28;20200;-84
2023/07/03 07:21:54;;;;;;;11.93;9.63;;;;;;;21.91;50.23;95474.25;5053216;28;20213;-81
2023/07/03 07:24:24;;;;;;;12.02;9.77;;;;;;;21.91;50.13;95472.44;5050313;28;20232;-83
2023/07/03 07:26:54;;;;;;;10.52;8.85;;;;;;;21.79;49.95;95468.38;5051338;28;20294;-82
2023/07/03 07:29:21;;;;;;;11.60;9.20;;;;;;;21.69;50.52;95474.31;5069292;28;20204;-85
2023/07/03 07:31:47;;;;;;;14.00;9.25;;;;;;;21.78;50.76;95466.78;5069638;28;20196;-84
2023/07/03 07:34:14;;;;;;;9.82;8.80;;;;;;;21.90;50.61;95470.84;5069373;28;20846;-85
2023/07/03 07:36:41;;;;;;;10.20;9.15;;;;;;;21.94;50.91;95464.03;5062095;28;20258;-83
2023/07/03 07:39:09;;;;;;;10.65;9.43;;;;;;;22.00;50.11;95462.28;5083656;28;20215;-84
2023/07/03 07:41:36;;;;;;;10.85;9.20;;;;;;;21.93;50.11;95456.44;5090726;28;20592;-83
2023/07/03 07:44:02;;;;;;;11.05;9.05;;;;;;;22.01;49.73;95463.88;5075905;28;20901;-82
2023/07/03 07:46:31;;;;;;;10.50;9.40;;;;;;;21.97;49.90;95460.13;5069470;28;20213;-84
2023/07/03 07:48:58;;;;;;;10.65;9.57;;;;;;;21.95;50.24;95462.19;5070285;28;20200;-85
2023/07/03 07:51:26;;;;;;;12.70;9.10;;;;;;;21.96;50.19;95464.56;5069734;28;20204;-83
2023/07/03 07:53:52;;;;;;;11.73;9.27;;;;;;;21.95;49.41;95460.38;5069672;28;20293;-84
2023/07/03 07:56:23;;;;;;;11.48;9.15;;;;;;;21.93;49.66;95459.06;5069300;28;20208;-82
2023/07/03 07:58:51;;;;;;;12.43;9.73;;;;;;;21.87;49.64;95467.94;5048942;28;20686;-83
2023/07/03 08:01:18;;;;;;;12.02;9.15;;;;;;;21.93;50.45;95466.94;5069862;28;20317;-85
2023/07/03 08:03:45;;;;;;;19.98;16.27;;;;;;;21.94;50.97;95466.66;5070555;28;20278;-84
2023/07/03 08:06:13;;;;;;;13.18;9.88;;;;;;;22.03;49.95;95467.81;5070482;28;20197;-85
2023/07/03 08:08:40;;;;;;;11.45;9.93;;;;;;;22.16;49.60;95478.91;5070599;28;20196;-83
2023/07/03 08:11:08;;;;;;;11.32;9.25;;;;;;;22.11;49.76;95460.53;5070297;28;20231;-84
2023/07/03 08:13:37;;;;;;;12.45;9.35;;;;;;;22.16;50.18;95458.72;5070413;28;20233;-85
2023/07/03 08:16:03;;;;;;;9.55;8.65;;;;;;;22.33;50.11;95469.06;5068444;28;20196;-83
2023/07/03 08:18:30;;;;;;;11.77;9.07;;;;;;;22.48;50.27;95463.94;5072332;28;20208;-85
2023/07/03 08:20:56;;;;;;;11.73;8.43;;;;;;;22.67;49.30;95459.84;5064209;28;20209;-84
2023/07/03 08:23:23;;;;;;;10.75;7.43;;;;;;;22.59;47.87;95462.94;5053512;28;20714;-83
2023/07/03 08:25:51;;;;;;;9.98;7.60;;;;;;;22.63;49.09;95465.84;5053401;28;20201;-83
2023/07/03 08:28:17;;;;;;;9.20;7.15;;;;;;;22.64;48.33;95468.22;5053129;28;20216;-84
2023/07/03 08:30:45;;;;;;;8.30;7.03;;;;;;;22.62;48.17;95464.25;5053228;28;20197;-84
2023/07/03 08:33:12;;;;;;;12.15;6.93;;;;;;;22.71;47.64;95455.63;5047036;28;20613;-84
2023/07/03 08:35:39;;;;;;;7.28;6.57;;;;;;;22.71;46.72;95460.09;5073560;28;20231;-86
2023/07/03 08:38:05;;;;;;;8.40;7.20;;;;;;;22.57;47.45;95465.03;5078758;28;20219;-83
2023/07/03 08:40:32;;;;;;;9.88;6.68;;;;;;;22.54;47.47;95462.09;5094492;28;20204;-85
2023/07/03 08:43:01;;;;;;;7.32;6.50;;;;;;;22.47;47.31;95461.56;5093808;28;20227;-85
2023/07/03 08:45:35;;;;;;;9.60;6.82;;;;;;;22.37;46.66;95460.44;5094630;28;20204;-83
2023/07/03 08:48:07;;;;;;;10.40;5.97;;;;;;;22.33;46.33;95459.38;5084841;28;20204;-83
2023/07/03 08:50:34;;;;;;;8.32;6.55;;;;;;;22.35;46.55;95453.88;5073521;28;20212;-85
2023/07/03 08:53:03;;;;;;;8.65;6.32;;;;;;;22.32;46.88;95460.41;5073118;28;20224;-83
2023/07/03 08:55:35;;;;;;;9.15;5.78;;;;;;;22.38;46.75;95462.03;5070130;28;20200;-83
2023/07/03 08:58:02;;;;;;;9.48;6.50;;;;;;;22.46;46.58;95457.34;5052209;28;20213;-82
2023/07/03 09:00:34;;;;;;;8.65;6.43;;;;;;;22.54;46.93;95464.72;5053511;28;20205;-83
2023/07/03 09:03:13;;;;;;;11.07;6.22;;;;;;;22.59;46.86;95456.88;5069234;28;20709;-83
2023/07/03 09:05:50;;;;;;;5.90;5.30;;;;;;;22.56;46.80;95452.94;5071103;28;20212;-84
2023/07/03 09:08:23;;;;;;;8.68;6.13;;;;;;;22.51;46.51;95458.19;5072599;28;20204;-85
2023/07/03 09:10:50;;;;;;;10.02;6.13;;;;;;;22.59;46.74;95456.88;5073344;28;20205;-83
2023/07/03 09:13:22;;;;;;;8.40;5.85;;;;;;;22.64;45.84;95464.81;5055797;28;20224;-82
2023/07/03 09:15:56;;;;;;;8.38;5.68;;;;;;;22.64;46.07;95468.22;5052449;28;20206;-85
2023/07/03 09:18:28;;;;;;;7.13;5.32;;;;;;;22.82;45.08;95459.13;5053363;28;20593;-83
2023/07/03 09:20:56;;;;;;;6.65;5.43;;;;;;;23.14;45.42;95466.06;5063520;28;20648;-85
2023/07/03 09:23:26;;;;;;;7.95;5.47;;;;;;;23.40;44.46;95470.38;5072931;28;20236;-85
2023/07/03 09:25:58;;;;;;;6.10;5.30;;;;;;;23.23;44.59;95461.91;5072906;28;20196;-83
2023/07/03 09:28:24;;;;;;;6.13;5.20;;;;;;;23.33;45.19;95461.94;5050990;28;20654;-82
2023/07/03 09:30:53;;;;;;;6.97;5.18;;;;;;;23.58;45.18;95459.38;5066246;28;20261;-84
2023/07/03 09:33:19;;;;;;;6.65;5.10;;;;;;;23.47;43.95;95468.28;5071554;28;20248;-83
2023/07/03 09:35:48;;;;;;;5.85;4.90;;;;;;;23.25;44.50;95471.13;5070168;28;20673;-83
2023/07/03 09:38:17;;;;;;;6.28;5.55;;;;;;;23.32;45.04;95471.66;5071821;28;20719;-83
2023/07/03 09:40:45;;;;;;;6.93;5.18;;;;;;;23.22;45.21;95462.97;5072231;28;20215;-85
2023/07/03 09:43:14;;;;;;;6.50;5.50;;;;;;;23.24;45.56;95466.91;5058855;28;20236;-84
2023/07/03 09:45:41;;;;;;;7.50;5.60;;;;;;;23.24;45.17;95460.88;5071163;28;20201;-85
2023/07/03 09:48:16;;;;;;;7.05;6.35;;;;;;;23.07;45.38;95467.13;5071859;28;20696;-83
2023/07/03 09:50:43;;;;;;;7.47;5.90;;;;;;;23.01;45.57;95464.72;5072285;28;20204;-83
2023/07/03 09:53:17;;;;;;;6.40;5.63;;;;;;;22.94;45.22;95478.09;5070662;28;20220;-84
2023/07/03 09:55:44;;;;;;;6.65;5.32;;;;;;;22.81;45.56;95470.69;5072220;28;20236;-83
2023/07/03 09:58:12;;;;;;;7.43;5.70;;;;;;;22.99;46.04;95466.81;5056321;28;20630;-85
2023/07/03 10:00:44;;;;;;;8.25;5.68;;;;;;;22.97;46.02;95477.56;5052624;28;20292;-82
2023/07/03 10:03:11;;;;;;;6.65;5.80;;;;;;;22.92;45.86;95479.38;5052119;28;20385;-82
2023/07/03 10:05:37;;;;;;;8.05;5.22;;;;;;;22.85;46.65;95481.47;5052137;28;20209;-83
2023/07/03 10:08:07;;;;;;;7.55;5.63;;;;;;;22.71;46.73;95481.88;5052698;28;20205;-84
2023/07/03 10:10:35;;;;;;;7.88;5.18;;;;;;;22.63;46.12;95476.34;5070537;28;20258;-82
2023/07/03 10:13:09;;;;;;;7.13;5.45;;;;;;;22.60;46.02;95472.38;5057377;28;20221;-82
2023/07/03 10:15:40;;;;;;;7.75;5.10;;;;;;;22.51;45.89;95489.66;5052013;28;20200;-84
2023/07/03 10:18:12;;;;;;;7.63;5.47;;;;;;;22.82;45.61;95490.66;5051739;28;20202;-86
2023/07/03 10:20:43;;;;;;;7.60;6.13;;;;;;;22.84;46.55;95482.50;5051171;28;20204;-84
2023/07/03 10:23:12;;;;;;;8.82;5.82;;;;;;;22.80;46.12;95489.31;5054980;28;20320;-85
2023/07/03 10:25:44;;;;;;;8.10;5.72;;;;;;;22.83;46.17;95483.56;5060287;28;20236;-83
2023/07/03 10:28:17;;;;;;;7.55;5.38;;;;;;;22.94;46.61;95483.34;5056851;28;20570;-84
2023/07/03 10:30:45;;;;;;;8.60;5.55;;;;;;;23.22;45.98;95476.88;5050998;28;20198;-85
2023/07/03 10:33:15;;;;;;;7.22;5.35;;;;;;;23.47;45.70;95485.91;5050736;28;20225;-83
2023/07/03 10:35:43;;;;;;;6.03;5.43;;;;;;;23.40;46.02;95483.50;5051191;28;20613;-84
2023/07/03 10:38:18;;;;;;;7.38;6.25;;;;;;;23.30;45.92;95476.38;5060805;28;20681;-82
2023/07/03 10:40:55;;;;;;;6.65;5.82;;;;;;;23.52;45.36;95478.03;5081612;28;20209;-84
2023/07/03 10:43:23;;;;;;;11.50;6.80;;;;;;;23.57;45.70;95470.16;5068487;28;20764;-85
2023/07/03 10:45:52;;;;;;;6.95;5.63;;;;;;;23.49;45.51;95468.00;5069479;28;20678;-83
2023/07/03 10:48:22;;;;;;;6.90;6.18;;;;;;;23.42;45.59;95463.00;5069290;28;20246;-82
2023/07/03 10:50:59;;;;;;;7.88;6.00;;;;;;;23.41;45.65;95471.94;5069948;28;20196;-86
2023/07/03 10:53:38;;;;;;;7.32;5.72;;;;;;;23.33;45.38;95467.19;5069849;28;20223;-86
2023/07/03 10:56:17;;;;;;;7.30;5.72;;;;;;;23.29;45.53;95471.38;5070559;28;20204;-84
2023/07/03 10:58:50;;;;;;;6.95;5.72;;;;;;;23.30;45.84;95473.75;5069092;28;20204;-85
2023/07/03 11:01:23;;;;;;;7.85;5.72;;;;;;;23.26;45.23;95474.53;5070734;28;20216;-85
2023/07/03 11:03:56;;;;;;;6.22;5.20;;;;;;;23.09;45.36;95472.13;5069029;28;20224;-85
2023/07/03 11:06:29;;;;;;;6.47;5.18;;;;;;;22.94;45.51;95477.28;5070903;28;20614;-84
2023/07/03 11:09:03;;;;;;;8.80;5.70;;;;;;;22.86;45.87;95481.22;5070735;28;20204;-85
2023/07/03 11:11:42;;;;;;;6.15;5.40;;;;;;;22.88;45.76;95466.00;5070895;28;20317;-84
2023/07/03 11:14:17;;;;;;;7.75;5.65;;;;;;;22.88;46.12;95473.09;5066139;28;20278;-83
2023/07/03 11:17:08;;;;;;;8.18;5.78;;;;;;;22.94;46.45;95474.66;5070575;28;20204;-86
2023/07/03 11:19:41;;;;;;;10.50;5.90;;;;;;;23.03;45.59;95467.91;5050296;28;20213;-85
2023/07/03 11:22:16;;;;;;;6.78;5.32;;;;;;;23.36;45.80;95458.78;5061093;28;20201;-86
2023/07/03 11:24:54;;;;;;;7.43;5.43;;;;;;;23.42;45.61;95457.75;5070058;28;20231;-83
2023/07/03 11:27:33;;;;;;;8.07;5.88;;;;;;;23.34;45.86;95455.63;5057951;28;20213;-85
2023/07/03 11:30:01;;;;;;;9.10;6.00;;;;;;;23.31;45.90;95456.13;5061552;28;20208;-86
2023/07/03 11:32:29;;;;;;;10.20;5.80;;;;;;;23.40;45.07;95455.38;5069767;28;20222;-85